Time;durP1;ratioP1;P1;durP2;ratioP2;P2;SDS_P1;SDS_P2;PMS_P1;PMS_P2;Temp;Humidity;BMP_temperature;BMP_pressure;BME280_temperature;BME280_humidity;BME280_pressure;Samples;Min_cycle;Max_cycle;Signal;HPM_P1;HPM_P2
2023/01/16 00:01:00;;;;;;;5.33;2.70;;;;;;;-142.25;100.00;58004.16;5042043;28;20218;-66
2023/01/16 00:03:25;;;;;;;6.40;3.43;;;;;;;-142.25;100.00;58004.16;5041175;28;20025;-66
2023/01/16 00:05:51;;;;;;;6.63;3.60;;;;;;;-142.25;100.00;58004.16;5035617;28;20402;-68
2023/01/16 00:08:16;;;;;;;6.73;4.03;;;;;;;-142.25;100.00;58004.16;5033026;28;20478;-66
2023/01/16 00:10:43;;;;;;;7.70;3.87;;;;;;;-142.25;100.00;58004.16;5036611;28;20487;-67
2023/01/16 00:13:10;;;;;;;6.80;4.50;;;;;;;-142.25;100.00;58004.16;5021767;28;20391;-66
2023/01/16 00:15:36;;;;;;;14.77;6.37;;;;;;;-142.25;100.00;58004.16;5039698;28;20087;-68
2023/01/16 00:18:02;;;;;;;14.33;7.90;;;;;;;-142.25;100.00;58004.16;5034762;28;20574;-66
2023/01/16 00:20:27;;;;;;;17.27;10.70;;;;;;;-142.25;100.00;58004.16;5041313;28;20131;-66
2023/01/16 00:22:53;;;;;;;7.93;5.00;;;;;;;-142.25;100.00;58004.16;5044357;28;20048;-66
2023/01/16 00:25:18;;;;;;;8.00;5.13;;;;;;;-142.25;100.00;58004.16;5043334;28;20064;-66
2023/01/16 00:27:44;;;;;;;5.53;2.73;;;;;;;-142.25;100.00;58004.16;5033332;28;20048;-65
2023/01/16 00:30:10;;;;;;;9.37;4.33;;;;;;;-142.25;100.00;58004.16;5030569;28;20376;-66
2023/01/16 00:32:35;;;;;;;5.20;4.03;;;;;;;-142.25;100.00;58004.16;5045202;28;20043;-65
2023/01/16 00:35:02;;;;;;;6.20;3.87;;;;;;;-142.25;100.00;58004.16;5045170;28;20052;-66
2023/01/16 00:37:27;;;;;;;6.20;4.57;;;;;;;-142.25;100.00;58004.16;5045574;28;20080;-66
2023/01/16 00:39:53;;;;;;;5.57;3.80;;;;;;;-142.25;100.00;58004.16;5039857;28;20131;-66
2023/01/16 00:42:19;;;;;;;10.50;5.87;;;;;;;-142.25;100.00;58004.16;5040861;28;20131;-67
2023/01/16 00:44:44;;;;;;;5.83;3.13;;;;;;;-142.25;100.00;58004.16;5028849;28;20403;-67
2023/01/16 00:47:10;;;;;;;3.53;2.80;;;;;;;-142.25;100.00;58004.16;5047155;28;20037;-67
2023/01/16 00:49:36;;;;;;;3.17;2.87;;;;;;;-142.25;100.00;58004.16;5046526;28;20044;-66
2023/01/16 00:52:03;;;;;;;2.90;2.70;;;;;;;-142.25;100.00;58004.16;5044872;28;20046;-67
2023/01/16 00:54:29;;;;;;;2.50;2.20;;;;;;;-142.25;100.00;58004.16;5045237;28;20049;-66
2023/01/16 00:56:56;;;;;;;3.43;2.37;;;;;;;-142.25;100.00;58004.16;5047253;28;20472;-66
2023/01/16 00:59:22;;;;;;;3.80;2.33;;;;;;;-142.25;100.00;58004.16;5043606;28;20627;-67
2023/01/16 01:01:47;;;;;;;4.60;3.20;;;;;;;-142.25;100.00;58004.16;5027582;28;20526;-66
2023/01/16 01:04:13;;;;;;;2.47;2.27;;;;;;;-142.25;100.00;58004.16;5040664;28;20049;-66
2023/01/16 01:06:40;;;;;;;2.63;1.97;;;;;;;-142.25;100.00;58004.16;5039407;28;20512;-66
2023/01/16 01:09:05;;;;;;;2.80;2.17;;;;;;;-142.25;100.00;58004.16;5039871;28;20048;-66
2023/01/16 01:11:31;;;;;;;3.00;2.23;;;;;;;-142.25;100.00;58004.16;5043066;28;20041;-67
2023/01/16 01:13:57;;;;;;;2.57;2.03;;;;;;;-142.25;100.00;58004.16;5042251;28;20054;-67
2023/01/16 01:16:23;;;;;;;2.57;2.10;;;;;;;-142.25;100.00;58004.16;5042086;28;20041;-69
2023/01/16 01:18:49;;;;;;;2.13;1.77;;;;;;;-142.25;100.00;58004.16;5042862;28;20061;-68
2023/01/16 01:21:16;;;;;;;4.03;2.93;;;;;;;-142.25;100.00;58004.16;5016872;28;20052;-66
2023/01/16 01:23:42;;;;;;;4.30;1.90;;;;;;;-142.25;100.00;58004.16;5044267;28;20207;-67
2023/01/16 01:26:12;;;;;;;3.00;2.43;;;;;;;-142.25;100.00;58004.16;5041137;28;20103;-67
2023/01/16 01:28:38;;;;;;;4.93;3.27;;;;;;;-142.25;100.00;58004.16;5040975;28;20040;-67
2023/01/16 01:31:10;;;;;;;6.50;3.90;;;;;;;-142.25;100.00;58004.16;5045862;28;20044;-69
2023/01/16 01:33:36;;;;;;;6.70;2.73;;;;;;;-142.25;100.00;58004.16;5028338;28;20055;-67
2023/01/16 01:36:03;;;;;;;3.47;2.87;;;;;;;-142.25;100.00;58004.16;5046450;28;20044;-67
2023/01/16 01:38:29;;;;;;;4.30;2.97;;;;;;;-142.25;100.00;58004.16;5046483;28;20132;-67
2023/01/16 01:40:54;;;;;;;4.73;2.80;;;;;;;-142.25;100.00;58004.16;5034444;28;20045;-68
2023/01/16 01:43:20;;;;;;;4.10;2.30;;;;;;;-142.25;100.00;58004.16;5043274;28;20664;-67
2023/01/16 01:45:51;;;;;;;3.10;2.80;;;;;;;-142.25;100.00;58004.16;5042699;28;20809;-68
2023/01/16 01:48:26;;;;;;;3.70;2.90;;;;;;;-142.25;100.00;58004.16;5038573;28;20032;-66
2023/01/16 01:50:55;;;;;;;2.50;2.20;;;;;;;-142.25;100.00;58004.16;5041131;28;20057;-65
2023/01/16 01:53:38;;;;;;;1.70;1.60;;;;;;;-142.25;100.00;58004.16;5044847;28;20060;-67
2023/01/16 01:56:15;;;;;;;2.73;1.93;;;;;;;-142.25;100.00;58004.16;5047220;28;20076;-67
2023/01/16 01:58:43;;;;;;;2.00;1.80;;;;;;;-142.25;100.00;58004.16;5048695;28;20057;-67
2023/01/16 02:01:12;;;;;;;2.27;2.07;;;;;;;-142.25;100.00;58004.16;5045549;28;20056;-67
2023/01/16 02:03:54;;;;;;;3.50;2.30;;;;;;;-142.25;100.00;58004.16;5043572;28;20033;-67
2023/01/16 02:06:29;;;;;;;5.57;2.07;;;;;;;-142.25;100.00;58004.16;5044885;28;20081;-67
2023/01/16 02:08:55;;;;;;;3.10;1.92;;;;;;;-142.25;100.00;58004.16;5044265;28;20045;-65
2023/01/16 02:11:46;;;;;;;2.53;1.73;;;;;;;-142.25;100.00;58004.16;5049404;28;20115;-70
2023/01/16 02:14:15;;;;;;;4.67;3.27;;;;;;;-142.25;100.00;58004.16;5045801;28;20048;-66
2023/01/16 02:19:46;;;;;;;4.07;3.63;;;;;;;-142.25;100.00;58004.16;5047711;28;20987;-67
2023/01/16 02:22:33;;;;;;;4.13;2.57;;;;;;;-142.25;100.00;58004.16;5025483;28;20050;-67
2023/01/16 02:25:25;;;;;;;1.23;1.20;;;;;;;-142.25;100.00;58004.16;5044203;28;20041;-66
2023/01/16 02:28:25;;;;;;;1.50;1.40;;;;;;;-142.25;100.00;58004.16;5039581;28;20036;-67
2023/01/16 02:31:17;;;;;;;2.97;1.67;;;;;;;-142.25;100.00;58004.16;5043901;28;20041;-66
2023/01/16 02:34:07;;;;;;;3.20;1.53;;;;;;;-142.25;100.00;58004.16;5036652;28;20092;-68
2023/01/16 02:36:42;;;;;;;1.67;1.47;;;;;;;-142.25;100.00;58004.16;5042776;28;20041;-66
2023/01/16 02:39:20;;;;;;;1.95;1.75;;;;;;;-142.25;100.00;58004.16;5041605;28;20611;-67
2023/01/16 02:42:16;;;;;;;2.23;1.70;;;;;;;-142.25;100.00;58004.16;5042780;28;20068;-66
2023/01/16 02:44:53;;;;;;;2.03;1.70;;;;;;;-142.25;100.00;58004.16;5039638;28;20063;-67
2023/01/16 02:47:31;;;;;;;1.40;1.30;;;;;;;-142.25;100.00;58004.16;5042937;28;20096;-67
2023/01/16 02:50:21;;;;;;;1.73;1.13;;;;;;;-142.25;100.00;58004.16;5028549;28;20502;-66
2023/01/16 02:53:13;;;;;;;1.60;1.50;;;;;;;-142.25;100.00;58004.16;5017074;28;21050;-67
2023/01/16 02:56:03;;;;;;;2.93;2.30;;;;;;;-142.25;100.00;58004.16;5026979;28;20049;-67
2023/01/16 02:58:32;;;;;;;3.77;1.87;;;;;;;-142.25;100.00;58004.16;5043525;28;20124;-66
2023/01/16 03:00:59;;;;;;;3.23;2.13;;;;;;;-142.25;100.00;58004.16;5015981;28;20091;-67
2023/01/16 03:03:37;;;;;;;2.87;1.93;;;;;;;-142.25;100.00;58004.16;5041359;28;20037;-66
2023/01/16 03:06:32;;;;;;;2.00;1.80;;;;;;;-142.25;100.00;58004.16;5041735;28;20127;-66
2023/01/16 03:09:33;;;;;;;3.60;2.47;;;;;;;-142.25;100.00;58004.16;5038914;28;20061;-66
2023/01/16 03:11:58;;;;;;;4.10;2.70;;;;;;;-142.25;100.00;58004.16;5037941;28;20891;-67
2023/01/16 03:14:35;;;;;;;2.70;2.50;;;;;;;-142.25;100.00;58004.16;5034589;28;20045;-66
2023/01/16 03:17:08;;;;;;;3.70;2.70;;;;;;;-142.25;100.00;58004.16;5025769;28;20040;-67
2023/01/16 03:19:42;;;;;;;2.10;1.93;;;;;;;-142.25;100.00;58004.16;5040201;28;20108;-67
2023/01/16 03:22:18;;;;;;;3.43;2.50;;;;;;;-142.25;100.00;58004.16;5041066;28;20041;-66
2023/01/16 03:25:05;;;;;;;1.60;1.50;;;;;;;-142.25;100.00;58004.16;5041157;28;20047;-66
2023/01/16 03:27:40;;;;;;;3.07;2.43;;;;;;;-142.25;100.00;58004.16;5029818;28;20126;-67
2023/01/16 03:30:14;;;;;;;2.92;2.20;;;;;;;-142.25;100.00;58004.16;5043542;28;20076;-67
2023/01/16 03:32:52;;;;;;;5.53;3.53;;;;;;;-142.25;100.00;58004.16;5039227;28;20103;-68
2023/01/16 03:35:28;;;;;;;2.93;1.93;;;;;;;-142.25;100.00;58004.16;5040035;28;20123;-67
2023/01/16 03:38:04;;;;;;;1.80;1.70;;;;;;;-142.25;100.00;58004.16;5040971;28;20455;-67
2023/01/16 03:40:34;;;;;;;2.90;2.27;;;;;;;-142.25;100.00;58004.16;5037992;28;20045;-66
2023/01/16 03:43:12;;;;;;;2.97;1.93;;;;;;;-142.25;100.00;58004.16;5034849;28;20041;-66
2023/01/16 03:45:45;;;;;;;2.43;2.00;;;;;;;-142.25;100.00;58004.16;5039072;28;20041;-67
2023/01/16 03:48:52;;;;;;;1.83;1.67;;;;;;;-142.25;100.00;58004.16;5031045;28;20033;-67
2023/01/16 03:51:24;;;;;;;4.00;2.27;;;;;;;-142.25;100.00;58004.16;4997604;28;20088;-68
2023/01/16 03:54:02;;;;;;;2.73;2.10;;;;;;;-142.25;100.00;58004.16;5037573;28;20120;-69
2023/01/16 03:56:52;;;;;;;4.53;2.67;;;;;;;-142.25;100.00;58004.16;5041829;28;20071;-68
2023/01/16 03:59:18;;;;;;;3.53;2.07;;;;;;;-142.25;100.00;58004.16;5041960;28;20044;-68
2023/01/16 04:01:47;;;;;;;5.83;2.20;;;;;;;-142.25;100.00;58004.16;5036639;28;20033;-68
2023/01/16 04:04:24;;;;;;;5.60;3.13;;;;;;;-142.25;100.00;58004.16;5039439;28;20044;-68
2023/01/16 04:07:02;;;;;;;4.10;3.00;;;;;;;-142.25;100.00;58004.16;5041582;28;20040;-67
2023/01/16 04:09:47;;;;;;;5.23;2.73;;;;;;;-142.25;100.00;58004.16;5040101;28;20117;-66
2023/01/16 04:12:17;;;;;;;3.60;2.40;;;;;;;-142.25;100.00;58004.16;5043340;28;20064;-66
2023/01/16 04:14:46;;;;;;;2.90;2.57;;;;;;;-142.25;100.00;58004.16;5035205;28;20130;-67
2023/01/16 04:17:12;;;;;;;3.70;2.47;;;;;;;-142.25;100.00;58004.16;5023900;28;20037;-68
2023/01/16 04:19:37;;;;;;;4.13;2.37;;;;;;;-142.25;100.00;58004.16;4995107;28;1205720;-67
2023/01/16 04:22:07;;;;;;;4.47;3.27;;;;;;;-142.25;100.00;58004.16;5035961;28;20046;-67
2023/01/16 04:24:35;;;;;;;3.13;2.10;;;;;;;-142.25;100.00;58004.16;5038554;28;20485;-67
2023/01/16 04:27:01;;;;;;;3.07;1.90;;;;;;;-142.25;100.00;58004.16;5027693;28;20509;-67
2023/01/16 04:29:26;;;;;;;2.90;1.90;;;;;;;-142.25;100.00;58004.16;5041564;28;20044;-67
2023/01/16 04:31:52;;;;;;;2.03;1.73;;;;;;;-142.25;100.00;58004.16;5041240;28;20050;-67
2023/01/16 04:34:24;;;;;;;2.27;1.80;;;;;;;-142.25;100.00;58004.16;5030049;28;20041;-68
2023/01/16 04:36:49;;;;;;;2.30;1.87;;;;;;;-142.25;100.00;58004.16;5038444;28;20052;-69
2023/01/16 04:39:15;;;;;;;1.73;1.63;;;;;;;-142.25;100.00;58004.16;5039100;28;20045;-71
2023/01/16 04:41:40;;;;;;;3.37;2.20;;;;;;;-142.25;100.00;58004.16;5039808;28;20495;-68
2023/01/16 04:44:09;;;;;;;2.00;1.67;;;;;;;-142.25;100.00;58004.16;5041871;28;20041;-68
2023/01/16 04:46:37;;;;;;;4.73;2.80;;;;;;;-142.25;100.00;58004.16;5040102;28;20352;-69
2023/01/16 04:49:04;;;;;;;1.70;1.57;;;;;;;-142.25;100.00;58004.16;5025327;28;20056;-68
2023/01/16 04:51:30;;;;;;;2.80;2.20;;;;;;;-142.25;100.00;58004.16;5039102;28;20045;-68
2023/01/16 04:53:56;;;;;;;5.03;2.03;;;;;;;-142.25;100.00;58004.16;5042981;28;20048;-67
2023/01/16 04:56:22;;;;;;;2.17;1.80;;;;;;;-142.25;100.00;58004.16;5041110;28;20131;-67
2023/01/16 04:58:49;;;;;;;3.40;1.90;;;;;;;-142.25;100.00;58004.16;5013832;28;20434;-66
2023/01/16 05:01:17;;;;;;;4.23;2.17;;;;;;;-142.25;100.00;58004.16;5041877;28;20045;-66
2023/01/16 05:03:43;;;;;;;3.87;2.10;;;;;;;-142.25;100.00;58004.16;5042018;28;20049;-67
2023/01/16 05:06:08;;;;;;;2.00;1.70;;;;;;;-142.25;100.00;58004.16;5041313;28;20041;-66
2023/01/16 05:08:37;;;;;;;1.70;1.60;;;;;;;-142.25;100.00;58004.16;5042299;28;20048;-66
2023/01/16 05:11:03;;;;;;;3.10;2.53;;;;;;;-142.25;100.00;58004.16;5040584;28;20047;-67
2023/01/16 05:13:29;;;;;;;3.27;2.27;;;;;;;-142.25;100.00;58004.16;5021905;28;20045;-67
2023/01/16 05:15:55;;;;;;;1.97;1.80;;;;;;;-142.25;100.00;58004.16;5041541;28;20080;-68
2023/01/16 05:18:21;;;;;;;4.13;2.67;;;;;;;-142.25;100.00;58004.16;5043133;28;20148;-67
2023/01/16 05:20:46;;;;;;;2.80;1.83;;;;;;;-142.25;100.00;58004.16;5045188;28;20064;-68
2023/01/16 05:23:12;;;;;;;3.23;2.60;;;;;;;-142.25;100.00;58004.16;5042998;28;20446;-67
2023/01/16 05:25:38;;;;;;;2.30;2.10;;;;;;;-142.25;100.00;58004.16;5045517;28;20056;-68
2023/01/16 05:28:05;;;;;;;3.73;2.97;;;;;;;-142.25;100.00;58004.16;5039906;28;20042;-67
2023/01/16 05:30:30;;;;;;;3.37;2.20;;;;;;;-142.25;100.00;58004.16;5023253;28;20045;-70
2023/01/16 05:32:56;;;;;;;4.77;3.20;;;;;;;-142.25;100.00;58004.16;5045448;28;20083;-71
2023/01/16 05:35:22;;;;;;;2.60;2.30;;;;;;;-142.25;100.00;58004.16;5045783;28;20462;-66
2023/01/16 05:37:48;;;;;;;5.17;3.33;;;;;;;-142.25;100.00;58004.16;5046813;28;20102;-67
2023/01/16 05:40:14;;;;;;;6.90;2.97;;;;;;;-142.25;100.00;58004.16;5045034;28;20049;-65
2023/01/16 05:42:44;;;;;;;2.87;2.13;;;;;;;-142.25;100.00;58004.16;5032664;28;20037;-66
2023/01/16 05:45:10;;;;;;;2.87;2.47;;;;;;;-142.25;100.00;58004.16;5041940;28;20049;-65
2023/01/16 05:47:36;;;;;;;4.57;3.17;;;;;;;-142.25;100.00;58004.16;5043380;28;20053;-66
2023/01/16 05:50:02;;;;;;;2.80;2.27;;;;;;;-142.25;100.00;58004.16;5043727;28;20586;-66
2023/01/16 05:52:28;;;;;;;3.63;2.87;;;;;;;-142.25;100.00;58004.16;5045162;28;20046;-66
2023/01/16 05:54:54;;;;;;;3.63;2.80;;;;;;;-142.25;100.00;58004.16;5021815;28;20044;-67
2023/01/16 05:57:20;;;;;;;3.63;2.97;;;;;;;-142.25;100.00;58004.16;5043479;28;20121;-66
2023/01/16 05:59:50;;;;;;;2.90;2.70;;;;;;;-142.25;100.00;58004.16;5039966;28;20414;-66
2023/01/16 06:02:18;;;;;;;3.33;2.37;;;;;;;-142.25;100.00;58004.16;5040834;28;20405;-62
2023/01/16 06:04:44;;;;;;;3.67;2.43;;;;;;;-142.25;100.00;58004.16;5047867;28;20119;-65
2023/01/16 06:07:10;;;;;;;3.90;2.43;;;;;;;-142.25;100.00;58004.16;5044200;28;20045;-69
2023/01/16 06:09:35;;;;;;;3.60;2.40;;;;;;;-142.25;100.00;58004.16;5039308;28;20041;-68
2023/01/16 06:12:01;;;;;;;2.43;2.10;;;;;;;-142.25;100.00;58004.16;5022395;28;20599;-67
2023/01/16 06:14:27;;;;;;;3.23;2.33;;;;;;;-142.25;100.00;58004.16;5043885;28;20503;-70
2023/01/16 06:16:54;;;;;;;3.67;2.43;;;;;;;-142.25;100.00;58004.16;5024970;28;20585;-70
2023/01/16 06:19:19;;;;;;;6.57;3.40;;;;;;;-142.25;100.00;58004.16;5043650;28;20488;-70
2023/01/16 06:21:45;;;;;;;5.17;2.60;;;;;;;-142.25;100.00;58004.16;5042020;28;20049;-70
2023/01/16 06:24:10;;;;;;;2.40;2.20;;;;;;;-142.25;100.00;58004.16;5039574;28;20040;-70
2023/01/16 06:26:36;;;;;;;3.70;2.47;;;;;;;-142.25;100.00;58004.16;5045154;28;20623;-71
2023/01/16 06:29:02;;;;;;;3.33;2.57;;;;;;;-142.25;100.00;58004.16;5041518;28;20389;-63
2023/01/16 06:31:28;;;;;;;2.73;2.07;;;;;;;-142.25;100.00;58004.16;5039253;28;20080;-68
2023/01/16 06:33:53;;;;;;;2.67;2.47;;;;;;;-142.25;100.00;58004.16;5043491;28;20059;-69
2023/01/16 06:36:19;;;;;;;2.87;2.20;;;;;;;-142.25;100.00;58004.16;5044501;28;20436;-69
2023/01/16 06:38:45;;;;;;;2.57;2.00;;;;;;;-142.25;100.00;58004.16;5045855;28;20076;-68
2023/01/16 06:41:10;;;;;;;2.67;2.30;;;;;;;-142.25;100.00;58004.16;5046182;28;20079;-70
2023/01/16 06:43:36;;;;;;;4.50;1.80;;;;;;;-142.25;100.00;58004.16;5041755;28;20078;-68
2023/01/16 06:46:02;;;;;;;5.53;2.70;;;;;;;-142.25;100.00;58004.16;5042023;28;20060;-70
2023/01/16 06:48:27;;;;;;;2.37;2.10;;;;;;;-142.25;100.00;58004.16;5036344;28;20996;-70
2023/01/16 06:50:53;;;;;;;2.50;2.10;;;;;;;-142.25;100.00;58004.16;5037672;28;20067;-69
2023/01/16 06:53:20;;;;;;;1.87;1.70;;;;;;;-142.25;100.00;58004.16;5026066;28;20799;-69
2023/01/16 06:55:46;;;;;;;2.13;1.80;;;;;;;-142.25;100.00;58004.16;5021656;28;20036;-70
2023/01/16 06:58:11;;;;;;;1.77;1.67;;;;;;;-142.25;100.00;58004.16;5041525;28;20052;-69
2023/01/16 07:00:37;;;;;;;2.53;2.33;;;;;;;-142.25;100.00;58004.16;5041613;28;20539;-69
2023/01/16 07:03:03;;;;;;;1.90;1.73;;;;;;;-142.25;100.00;58004.16;5040425;28;20049;-69
2023/01/16 07:05:30;;;;;;;5.40;2.70;;;;;;;-142.25;100.00;58004.16;5041780;28;20526;-70
2023/01/16 07:07:56;;;;;;;3.17;2.57;;;;;;;-142.25;100.00;58004.16;5041973;28;20535;-69
2023/01/16 07:10:22;;;;;;;5.57;3.47;;;;;;;-142.25;100.00;58004.16;5038534;28;20040;-70
2023/01/16 07:12:49;;;;;;;3.47;2.50;;;;;;;-142.25;100.00;58004.16;5024575;28;20152;-69
2023/01/16 07:23:39;;;;;;;6.43;5.43;;;;;;;-142.25;100.00;58004.16;5042595;28;20047;-70
2023/01/16 07:26:07;;;;;;;7.20;4.00;;;;;;;-142.25;100.00;58004.16;5041932;28;20045;-70
2023/01/16 07:28:33;;;;;;;8.27;4.60;;;;;;;-142.25;100.00;58004.16;5024928;28;20101;-70
2023/01/16 07:31:00;;;;;;;5.53;4.67;;;;;;;-142.25;100.00;58004.16;5042665;28;20048;-71
2023/01/16 07:33:26;;;;;;;6.93;4.30;;;;;;;-142.25;100.00;58004.16;5027936;28;20735;-70
2023/01/16 07:35:51;;;;;;;6.10;5.17;;;;;;;-142.25;100.00;58004.16;5040117;28;20057;-71
2023/01/16 07:38:17;;;;;;;5.87;4.57;;;;;;;-142.25;100.00;58004.16;5039641;28;20121;-70
2023/01/16 07:40:42;;;;;;;5.80;4.20;;;;;;;-142.25;100.00;58004.16;5022931;28;20111;-70
2023/01/16 07:43:08;;;;;;;7.03;4.73;;;;;;;-142.25;100.00;58004.16;5039029;28;20041;-71
2023/01/16 07:45:33;;;;;;;4.27;3.33;;;;;;;-142.25;100.00;58004.16;5038637;28;20151;-71
2023/01/16 07:48:00;;;;;;;4.53;3.50;;;;;;;-142.25;100.00;58004.16;5038733;28;20052;-70
2023/01/16 07:50:27;;;;;;;3.80;3.50;;;;;;;-142.25;100.00;58004.16;5039548;28;20045;-72
2023/01/16 07:52:52;;;;;;;3.33;3.00;;;;;;;-142.25;100.00;58004.16;5019792;28;20053;-70
2023/01/16 07:55:18;;;;;;;6.03;3.33;;;;;;;-142.25;100.00;58004.16;5042663;28;20052;-71
2023/01/16 07:57:43;;;;;;;9.23;5.43;;;;;;;-142.25;100.00;58004.16;5044110;28;20040;-71
2023/01/16 08:00:10;;;;;;;9.73;6.60;;;;;;;-142.25;100.00;58004.16;5046392;28;20041;-73
2023/01/16 08:02:40;;;;;;;7.40;4.60;;;;;;;-142.25;100.00;58004.16;5031854;28;20087;-74
2023/01/16 08:05:06;;;;;;;6.60;3.97;;;;;;;-142.25;100.00;58004.16;5041517;28;20474;-72
2023/01/16 08:07:31;;;;;;;5.93;4.27;;;;;;;-142.25;100.00;58004.16;5041244;28;20088;-72
2023/01/16 08:09:57;;;;;;;5.53;3.93;;;;;;;-142.25;100.00;58004.16;5042474;28;20133;-72
2023/01/16 08:12:23;;;;;;;10.23;4.73;;;;;;;-142.25;100.00;58004.16;5041639;28;20041;-73
2023/01/16 08:14:48;;;;;;;6.43;5.17;;;;;;;-142.25;100.00;58004.16;5038909;28;20081;-72
2023/01/16 08:17:15;;;;;;;6.20;4.93;;;;;;;-142.25;100.00;58004.16;5042609;28;20514;-72
2023/01/16 08:19:40;;;;;;;5.57;4.10;;;;;;;-142.25;100.00;58004.16;5040099;28;20895;-71
2023/01/16 08:22:06;;;;;;;10.50;5.13;;;;;;;-142.25;100.00;58004.16;5040895;28;20128;-72
2023/01/16 08:24:32;;;;;;;6.17;3.63;;;;;;;-142.25;100.00;58004.16;5042603;28;20318;-72
2023/01/16 08:26:57;;;;;;;4.83;3.40;;;;;;;-142.25;100.00;58004.16;5042216;28;20065;-71
2023/01/16 08:29:24;;;;;;;6.20;3.17;;;;;;;-142.25;100.00;58004.16;5021964;28;20434;-71
2023/01/16 08:31:50;;;;;;;6.00;3.73;;;;;;;-142.25;100.00;58004.16;5041205;28;20040;-72
2023/01/16 08:34:16;;;;;;;5.90;4.30;;;;;;;-142.25;100.00;58004.16;5023350;28;20037;-72
2023/01/16 08:36:42;;;;;;;7.00;4.17;;;;;;;-142.25;100.00;58004.16;5010101;28;20113;-72
2023/01/16 08:39:10;;;;;;;5.20;3.63;;;;;;;-142.25;100.00;58004.16;5042344;28;20119;-72
2023/01/16 08:52:58;;;;;;;3.40;2.70;;;;;;;-142.25;100.00;58004.16;5044031;28;20040;-73
2023/01/16 08:55:24;;;;;;;6.27;4.90;;;;;;;-142.25;100.00;58004.16;5022625;28;20131;-73
2023/01/16 08:57:49;;;;;;;6.47;4.60;;;;;;;-142.25;100.00;58004.16;5045616;28;20396;-72
2023/01/16 09:00:16;;;;;;;4.53;3.40;;;;;;;-142.25;100.00;58004.16;5048541;28;20081;-72
2023/01/16 09:02:41;;;;;;;5.17;4.23;;;;;;;-142.25;100.00;58004.16;5047593;28;20415;-73
2023/01/16 09:05:07;;;;;;;5.67;4.03;;;;;;;-142.25;100.00;58004.16;5046823;28;20055;-73
2023/01/16 09:07:33;;;;;;;6.53;3.40;;;;;;;-142.25;100.00;58004.16;5048029;28;20112;-72
2023/01/16 09:09:58;;;;;;;6.97;4.50;;;;;;;-142.25;100.00;58004.16;5048214;28;20029;-74
2023/01/16 09:15:08;;;;;;;4.67;3.37;;;;;;;-142.25;100.00;58004.16;5043311;28;20499;-73
2023/01/16 09:17:34;;;;;;;5.87;3.57;;;;;;;-142.25;100.00;58004.16;5045429;28;20045;-73
2023/01/16 09:19:59;;;;;;;4.77;4.27;;;;;;;-142.25;100.00;58004.16;5023730;28;20049;-73
2023/01/16 09:22:28;;;;;;;4.60;3.27;;;;;;;-142.25;100.00;58004.16;5043283;28;20594;-73
2023/01/16 09:24:54;;;;;;;5.73;2.70;;;;;;;-142.25;100.00;58004.16;5046306;28;20036;-72
2023/01/16 09:27:20;;;;;;;5.63;3.77;;;;;;;-142.25;100.00;58004.16;5043309;28;20098;-72
2023/01/16 09:29:46;;;;;;;6.60;3.83;;;;;;;-142.25;100.00;58004.16;5045194;28;20423;-73
2023/01/16 09:32:12;;;;;;;3.97;3.37;;;;;;;-142.25;100.00;58004.16;5032564;28;20329;-74
2023/01/16 09:34:39;;;;;;;5.80;4.23;;;;;;;-142.25;100.00;58004.16;5040329;28;20327;-72
2023/01/16 09:37:05;;;;;;;9.27;4.47;;;;;;;-142.25;100.00;58004.16;5045985;28;20463;-72
2023/01/16 09:39:31;;;;;;;6.50;3.27;;;;;;;-142.25;100.00;58004.16;5026275;28;20047;-74
2023/01/16 09:45:26;;;;;;;3.77;3.00;;;;;;;-142.25;100.00;58004.16;5044100;28;20041;-68
2023/01/16 09:47:57;;;;;;;3.83;3.23;;;;;;;-142.25;100.00;58004.16;5022727;28;20044;-71
2023/01/16 09:50:38;;;;;;;3.73;3.23;;;;;;;-142.25;100.00;58004.16;5045112;28;20128;-71
2023/01/16 09:59:05;;;;;;;4.73;3.53;;;;;;;-142.25;100.00;58004.16;5043367;28;20583;-70
2023/01/16 10:01:36;;;;;;;5.53;3.23;;;;;;;-142.25;100.00;58004.16;5007585;28;20455;-69
2023/01/16 10:04:20;;;;;;;4.00;3.30;;;;;;;-142.25;100.00;58004.16;5043508;28;20063;-69
2023/01/16 10:06:58;;;;;;;3.00;2.70;;;;;;;-142.25;100.00;58004.16;5039461;28;20045;-66
2023/01/16 10:09:37;;;;;;;5.40;2.87;;;;;;;-142.25;100.00;58004.16;5039746;28;20036;-65
2023/01/16 10:12:08;;;;;;;4.73;3.03;;;;;;;-142.25;100.00;58004.16;5042218;28;20784;-66
2023/01/16 10:14:57;;;;;;;4.73;3.03;;;;;;;-142.25;100.00;58004.16;5043757;28;20045;-69
2023/01/16 10:17:34;;;;;;;6.10;3.07;;;;;;;-142.25;100.00;58004.16;5042070;28;20056;-69
2023/01/16 10:20:31;;;;;;;3.57;2.53;;;;;;;-142.25;100.00;58004.16;5041000;28;20053;-69
2023/01/16 10:23:23;;;;;;;3.87;3.17;;;;;;;-142.25;100.00;58004.16;5037438;28;20037;-68
2023/01/16 10:26:15;;;;;;;3.90;2.67;;;;;;;-142.25;100.00;58004.16;5011680;28;20064;-70
2023/01/16 10:28:41;;;;;;;2.40;2.17;;;;;;;-142.25;100.00;58004.16;5040772;28;20366;-68
2023/01/16 10:31:18;;;;;;;2.93;2.57;;;;;;;-142.25;100.00;58004.16;5037520;28;20116;-70
2023/01/16 10:33:57;;;;;;;6.33;2.73;;;;;;;-142.25;100.00;58004.16;5034266;28;20655;-63
2023/01/16 10:36:38;;;;;;;2.90;2.10;;;;;;;-142.25;100.00;58004.16;5039180;28;20037;-70
2023/01/16 10:39:05;;;;;;;3.27;2.57;;;;;;;-142.25;100.00;58004.16;5036053;28;20155;-70
2023/01/16 10:50:06;;;;;;;2.73;2.07;;;;;;;-142.25;100.00;58004.16;5041284;28;20045;-70
2023/01/16 10:52:32;;;;;;;4.00;2.53;;;;;;;-142.25;100.00;58004.16;5039785;28;20068;-68
2023/01/16 10:55:00;;;;;;;2.30;2.07;;;;;;;-142.25;100.00;58004.16;5041210;28;20476;-68
2023/01/16 10:57:26;;;;;;;3.47;2.40;;;;;;;-142.25;100.00;58004.16;5044351;28;20067;-68
2023/01/16 11:00:14;;;;;;;2.67;2.27;;;;;;;-142.25;100.00;58004.16;5040788;28;20151;-67
2023/01/16 11:02:43;;;;;;;2.60;2.00;;;;;;;-142.25;100.00;58004.16;5029786;28;20048;-69
2023/01/16 11:05:22;;;;;;;2.30;1.90;;;;;;;-142.25;100.00;58004.16;5042948;28;20052;-69
2023/01/16 11:07:48;;;;;;;1.80;1.70;;;;;;;-142.25;100.00;58004.16;5042743;28;20183;-68
2023/01/16 11:10:15;;;;;;;3.13;2.70;;;;;;;-142.25;100.00;58004.16;5039292;28;20044;-67
2023/01/16 11:18:38;;;;;;;5.33;2.97;;;;;;;-142.25;100.00;58004.16;5041057;28;20068;-67
2023/01/16 11:21:31;;;;;;;2.83;2.20;;;;;;;-142.25;100.00;58004.16;5025898;28;20359;-70
2023/01/16 11:24:18;;;;;;;4.00;2.47;;;;;;;-142.25;100.00;58004.16;5040822;28;20476;-70
2023/01/16 11:26:49;;;;;;;3.37;2.83;;;;;;;-142.25;100.00;58004.16;5043302;28;20087;-71
2023/01/16 11:29:23;;;;;;;4.70;3.63;;;;;;;-142.25;100.00;58004.16;5039541;28;20445;-70
2023/01/16 11:31:56;;;;;;;5.83;4.27;;;;;;;-142.25;100.00;58004.16;5042533;28;20045;-71
2023/01/16 11:34:27;;;;;;;4.60;2.50;;;;;;;-142.25;100.00;58004.16;5041536;28;20044;-71
2023/01/16 11:37:07;;;;;;;3.30;2.43;;;;;;;-142.25;100.00;58004.16;5043756;28;20080;-71
2023/01/16 11:39:35;;;;;;;2.53;2.20;;;;;;;-142.25;100.00;58004.16;5047205;28;20059;-71
2023/01/16 11:46:02;;;;;;;4.07;2.93;;;;;;;-142.25;100.00;58004.16;5044345;28;20053;-72
2023/01/16 11:47:54;;;;;;;4.17;3.10;;;;;;;-142.25;100.00;58004.16;5044876;28;20458;-71
2023/01/16 11:50:26;;;;;;;6.73;5.10;;;;;;;-142.25;100.00;58004.16;5047957;28;20071;-65
2023/01/16 11:52:52;;;;;;;4.43;3.50;;;;;;;-142.25;100.00;58004.16;5039046;28;20064;-62
2023/01/16 11:55:18;;;;;;;5.93;4.60;;;;;;;-142.25;100.00;58004.16;5026213;28;20043;-71
2023/01/16 11:58:02;;;;;;;4.50;2.93;;;;;;;-142.25;100.00;58004.16;5041748;28;20130;-70
2023/01/16 12:00:46;;;;;;;4.80;3.53;;;;;;;-142.25;100.00;58004.16;5040207;28;20076;-73
2023/01/16 12:03:42;;;;;;;4.40;2.80;;;;;;;-142.25;100.00;58004.16;5040945;28;20043;-70
2023/01/16 12:06:35;;;;;;;3.38;2.45;;;;;;;-142.25;100.00;58004.16;5042071;28;20486;-70
2023/01/16 12:09:10;;;;;;;3.97;2.90;;;;;;;-142.25;100.00;58004.16;5039777;28;20043;-69
2023/01/16 12:11:55;;;;;;;3.70;2.43;;;;;;;-142.25;100.00;58004.16;5041498;28;20037;-63
2023/01/16 12:14:45;;;;;;;3.50;2.63;;;;;;;-142.25;100.00;58004.16;5037941;28;20033;-62
2023/01/16 12:17:47;;;;;;;3.50;2.87;;;;;;;-142.25;100.00;58004.16;5040457;28;20036;-61